Time;durP1;ratioP1;P1;durP2;ratioP2;P2;SDS_P1;SDS_P2;PMS_P1;PMS_P2;Temp;Humidity;BMP_temperature;BMP_pressure;BME280_temperature;BME280_humidity;BME280_pressure;Samples;Min_cycle;Max_cycle;Signal;HPM_P1;HPM_P2
2021/12/23 00:00:09;;;;;;;74.05;28.40;;;;;;;-2.20;100.00;101678.34;5040319;28;20136;-45
2021/12/23 00:02:35;;;;;;;131.55;37.92;;;;;;;-2.21;100.00;101673.16;5039367;28;20024;-43
2021/12/23 00:05:00;;;;;;;66.32;25.92;;;;;;;-2.22;100.00;101668.84;5040764;28;20032;-43
2021/12/23 00:07:25;;;;;;;205.20;57.30;;;;;;;-2.26;100.00;101660.25;5038542;28;20029;-42
2021/12/23 00:10:05;;;;;;;83.15;30.98;;;;;;;-2.30;100.00;101648.22;5040973;28;20342;-43
2021/12/23 00:12:31;;;;;;;77.30;29.73;;;;;;;-2.35;100.00;101637.06;5040092;28;20037;-43
2021/12/23 00:14:56;;;;;;;68.90;26.95;;;;;;;-2.39;100.00;101625.00;5039945;28;20464;-44
2021/12/23 00:17:28;;;;;;;75.10;29.70;;;;;;;-2.42;100.00;101626.00;5040380;28;20117;-43
2021/12/23 00:25:15;;;;;;;65.28;27.15;;;;;;;-2.45;100.00;101620.88;5040792;28;20200;-44
2021/12/23 00:27:40;;;;;;;63.40;26.58;;;;;;;-2.45;100.00;101637.41;5040327;28;20275;-43
2021/12/23 00:30:07;;;;;;;68.97;27.17;;;;;;;-2.41;100.00;101618.97;5040219;28;20111;-44
2021/12/23 00:32:32;;;;;;;71.50;28.48;;;;;;;-2.38;100.00;101604.03;5039107;28;20051;-43
2021/12/23 00:34:57;;;;;;;69.07;27.42;;;;;;;-2.37;100.00;101600.50;5040008;28;20476;-45
2021/12/23 00:37:22;;;;;;;68.13;27.67;;;;;;;-2.35;100.00;101600.44;5040282;28;20060;-44
2021/12/23 00:39:48;;;;;;;68.75;27.05;;;;;;;-2.33;100.00;101598.63;5040109;28;20354;-45
2021/12/23 00:42:13;;;;;;;66.20;27.48;;;;;;;-2.32;100.00;101603.78;5039849;28;20025;-45
2021/12/23 00:44:45;;;;;;;64.03;26.95;;;;;;;-2.30;100.00;101609.81;5039187;28;20110;-43
2021/12/23 00:47:10;;;;;;;77.35;30.30;;;;;;;-2.28;100.00;101602.75;5038259;28;20036;-45
2021/12/23 00:49:35;;;;;;;67.05;28.40;;;;;;;-2.28;100.00;101602.75;5038934;28;20029;-45
2021/12/23 00:52:03;;;;;;;73.25;28.42;;;;;;;-2.26;100.00;101592.22;5039314;28;20488;-45
2021/12/23 00:54:28;;;;;;;66.50;27.27;;;;;;;-2.25;100.00;101588.72;5039563;28;20460;-44
2021/12/23 00:56:53;;;;;;;67.57;27.67;;;;;;;-2.23;100.00;101591.28;5040462;28;20032;-43
2021/12/23 00:59:19;;;;;;;75.80;27.65;;;;;;;-2.24;100.00;101593.03;5040486;28;20377;-44
2021/12/23 01:01:46;;;;;;;73.00;27.60;;;;;;;-2.22;100.00;101592.97;5039251;28;20032;-44
2021/12/23 01:04:11;;;;;;;69.88;27.80;;;;;;;-2.23;100.00;101592.13;5039791;28;20439;-44
2021/12/23 01:06:37;;;;;;;67.88;28.67;;;;;;;-2.25;100.00;101601.78;5038094;28;20399;-44
2021/12/23 01:09:03;;;;;;;74.05;30.08;;;;;;;-2.25;100.00;101605.25;5040034;28;20079;-44
2021/12/23 01:11:28;;;;;;;65.68;26.83;;;;;;;-2.25;100.00;101592.16;5039641;28;20103;-45
2021/12/23 01:14:03;;;;;;;73.25;27.52;;;;;;;-2.22;100.00;101590.34;5039800;28;20128;-44
2021/12/23 01:19:39;;;;;;;71.25;27.42;;;;;;;-2.17;100.00;101570.94;5000099;28;20436;-44
2021/12/23 01:22:04;;;;;;;71.80;27.63;;;;;;;-2.14;100.00;101564.72;5000101;28;20060;-42
2021/12/23 01:24:33;;;;;;;71.60;27.83;;;;;;;-2.12;100.00;101557.66;5021153;28;20068;-44
2021/12/23 01:26:58;;;;;;;77.30;28.52;;;;;;;-2.10;100.00;101555.84;5043300;28;20061;-44
2021/12/23 01:29:23;;;;;;;70.05;27.95;;;;;;;-2.11;100.00;101548.91;5043316;28;20049;-44
2021/12/23 01:31:49;;;;;;;74.10;29.65;;;;;;;-2.10;100.00;101555.84;5042783;28;20029;-45
2021/12/23 01:34:14;;;;;;;73.47;29.13;;;;;;;-2.11;100.00;101564.59;5043293;28;20527;-44
2021/12/23 01:36:39;;;;;;;70.78;27.83;;;;;;;-2.11;100.00;101551.53;5041458;28;20040;-43
2021/12/23 01:39:04;;;;;;;70.22;28.13;;;;;;;-2.13;100.00;101550.75;5034534;28;20025;-44
2021/12/23 01:41:30;;;;;;;69.43;29.08;;;;;;;-2.12;100.00;101545.44;5022841;28;20048;-45
2021/12/23 01:43:55;;;;;;;72.30;28.67;;;;;;;-2.12;100.00;101540.22;5022831;28;20040;-44
2021/12/23 01:46:22;;;;;;;77.05;28.98;;;;;;;-2.12;100.00;101550.69;5021276;28;20026;-43
2021/12/23 01:48:48;;;;;;;70.60;28.23;;;;;;;-2.14;100.00;101528.09;5022959;28;20029;-43
2021/12/23 01:51:13;;;;;;;72.43;29.65;;;;;;;-2.13;100.00;101538.50;5022015;28;20029;-45
2021/12/23 01:53:40;;;;;;;75.63;28.75;;;;;;;-2.14;100.00;101538.56;5022487;28;20027;-44
2021/12/23 01:56:05;;;;;;;74.90;29.63;;;;;;;-2.15;100.00;101532.47;5023239;28;20025;-42
2021/12/23 01:58:35;;;;;;;75.25;29.13;;;;;;;-2.18;100.00;101526.53;5021984;28;20052;-43
2021/12/23 02:01:00;;;;;;;76.40;30.60;;;;;;;-2.20;100.00;101517.88;5023356;28;20043;-43
2021/12/23 02:03:26;;;;;;;76.25;29.20;;;;;;;-2.21;100.00;101505.72;5022397;28;20384;-43
2021/12/23 02:05:52;;;;;;;78.95;29.13;;;;;;;-2.27;100.00;101509.44;5021314;28;20021;-44
2021/12/23 02:08:17;;;;;;;71.82;30.33;;;;;;;-2.28;100.00;101519.03;5041930;28;20568;-42
2021/12/23 02:10:44;;;;;;;75.93;29.08;;;;;;;-2.32;100.00;101507.00;5042567;28;20025;-43
2021/12/23 02:13:10;;;;;;;74.22;29.98;;;;;;;-2.33;100.00;101505.28;5042720;28;20545;-44
2021/12/23 02:15:35;;;;;;;76.40;29.52;;;;;;;-2.35;100.00;101507.13;5041570;28;20603;-43
2021/12/23 02:18:00;;;;;;;76.30;29.40;;;;;;;-2.40;100.00;101497.75;5042288;28;20020;-46
2021/12/23 02:20:31;;;;;;;72.30;28.08;;;;;;;-2.45;100.00;101503.16;5041268;28;20044;-44
2021/12/23 02:22:58;;;;;;;76.65;29.00;;;;;;;-2.47;100.00;101497.16;5040924;28;20095;-42
2021/12/23 02:25:23;;;;;;;74.32;29.65;;;;;;;-2.50;100.00;101492.03;5040949;28;20061;-44
2021/12/23 02:27:50;;;;;;;74.05;29.15;;;;;;;-2.52;100.00;101492.09;5042019;28;20087;-44
2021/12/23 02:30:18;;;;;;;86.72;30.65;;;;;;;-2.53;100.00;101493.03;5041212;28;20570;-43
2021/12/23 02:32:45;;;;;;;77.72;30.27;;;;;;;-2.53;100.00;101510.47;5041501;28;20051;-42
2021/12/23 02:35:15;;;;;;;73.50;29.50;;;;;;;-2.54;100.00;101519.25;5040747;28;20498;-43
2021/12/23 02:37:42;;;;;;;76.18;29.42;;;;;;;-2.57;100.00;101514.13;5041581;28;20045;-45
2021/12/23 02:40:09;;;;;;;77.20;31.63;;;;;;;-2.60;100.00;101509.84;5042090;28;20036;-43
2021/12/23 02:42:34;;;;;;;84.85;32.25;;;;;;;-2.63;100.00;101513.44;5041362;28;20036;-45
2021/12/23 02:45:01;;;;;;;80.20;31.35;;;;;;;-2.67;100.00;101511.84;5041852;28;20036;-42
2021/12/23 02:47:26;;;;;;;77.63;29.17;;;;;;;-2.69;100.00;101499.75;5041085;28;20036;-43
2021/12/23 02:49:52;;;;;;;81.20;31.85;;;;;;;-2.77;100.00;101497.44;5040417;28;20029;-43
2021/12/23 02:52:17;;;;;;;81.10;29.70;;;;;;;-2.82;100.00;101497.63;5041448;28;20472;-44
2021/12/23 02:54:42;;;;;;;77.20;29.35;;;;;;;-2.85;100.00;101491.63;5040933;28;20044;-44
2021/12/23 02:57:08;;;;;;;76.20;28.17;;;;;;;-2.89;100.00;101477.00;5041844;28;20031;-44
2021/12/23 02:59:33;;;;;;;77.40;29.00;;;;;;;-2.92;100.00;101464.91;5040438;28;20499;-42
2021/12/23 03:02:00;;;;;;;86.22;29.52;;;;;;;-2.93;100.00;101460.59;5041404;28;20119;-43
2021/12/23 03:04:26;;;;;;;78.57;28.83;;;;;;;-2.95;100.00;101461.53;5040977;28;20033;-42
2021/12/23 03:06:55;;;;;;;79.68;30.10;;;;;;;-2.98;100.00;101457.31;5041222;28;20025;-44
2021/12/23 03:09:21;;;;;;;81.53;30.77;;;;;;;-3.02;100.00;101459.19;5041622;28;20054;-45
2021/12/23 03:11:46;;;;;;;81.30;30.30;;;;;;;-3.03;100.00;101457.47;5041119;28;20160;-43
2021/12/23 03:14:13;;;;;;;93.07;32.45;;;;;;;-3.08;100.00;101445.50;5039508;28;20465;-41
2021/12/23 03:16:38;;;;;;;81.53;28.50;;;;;;;-3.09;100.00;101449.00;5040548;28;20024;-45
2021/12/23 03:19:05;;;;;;;82.43;29.70;;;;;;;-3.10;100.00;101453.41;5041392;28;20342;-44
2021/12/23 03:21:31;;;;;;;81.88;30.38;;;;;;;-3.13;100.00;101447.44;5039502;28;20029;-43
2021/12/23 03:23:56;;;;;;;79.07;27.80;;;;;;;-3.16;100.00;101437.09;5040975;28;20032;-45
2021/12/23 03:26:22;;;;;;;83.18;28.92;;;;;;;-3.24;100.00;101419.97;5041568;28;20025;-44
2021/12/23 03:28:48;;;;;;;79.72;31.42;;;;;;;-3.21;100.00;101429.44;5040061;28;21049;-45
2021/12/23 03:31:14;;;;;;;80.22;27.45;;;;;;;-3.23;100.00;101431.25;5040764;28;20056;-43
2021/12/23 03:33:39;;;;;;;77.05;29.10;;;;;;;-3.25;100.00;101422.63;5040087;28;20025;-42
2021/12/23 03:36:05;;;;;;;85.18;29.30;;;;;;;-3.27;100.00;101427.06;5039318;28;20127;-47
2021/12/23 03:38:31;;;;;;;74.32;27.48;;;;;;;-3.30;100.00;101417.56;5036404;28;20122;-46
2021/12/23 03:40:56;;;;;;;75.32;27.33;;;;;;;-3.30;100.00;101396.69;5020857;28;20049;-47
2021/12/23 03:43:22;;;;;;;78.40;29.55;;;;;;;-3.29;100.00;101392.28;5021441;28;20553;-45
2021/12/23 03:45:48;;;;;;;86.03;29.25;;;;;;;-3.26;100.00;101384.34;5020410;28;20045;-45
2021/12/23 03:48:16;;;;;;;86.82;33.35;;;;;;;-3.23;100.00;101374.63;5020414;28;20121;-43
2021/12/23 03:50:42;;;;;;;89.72;32.33;;;;;;;-3.16;100.00;101367.41;5019097;28;20076;-47
2021/12/23 03:53:08;;;;;;;82.00;29.23;;;;;;;-3.10;100.00;101356.72;5021131;28;20031;-44
2021/12/23 03:55:33;;;;;;;88.90;32.70;;;;;;;-3.08;100.00;101365.34;5020111;28;20026;-44
2021/12/23 03:57:58;;;;;;;83.45;31.73;;;;;;;-3.06;100.00;101368.75;5021363;28;20508;-44
2021/12/23 04:00:24;;;;;;;87.00;31.75;;;;;;;-3.04;100.00;101356.50;5020566;28;20029;-43
2021/12/23 04:02:50;;;;;;;88.60;31.52;;;;;;;-3.02;100.00;101367.72;5019986;28;20067;-43
2021/12/23 04:05:16;;;;;;;93.10;33.85;;;;;;;-3.03;100.00;101360.78;5018994;28;20032;-44
2021/12/23 04:07:43;;;;;;;93.57;31.67;;;;;;;-3.04;100.00;101345.16;5020304;28;20037;-43
2021/12/23 04:10:12;;;;;;;91.18;32.15;;;;;;;-3.01;100.00;101337.22;5020972;28;20025;-43
2021/12/23 04:12:38;;;;;;;88.57;30.95;;;;;;;-2.99;100.00;101356.28;5020149;28;20548;-45
2021/12/23 04:15:04;;;;;;;87.88;32.33;;;;;;;-2.95;100.00;101364.84;5020632;28;20342;-43
2021/12/23 04:17:30;;;;;;;100.28;35.05;;;;;;;-2.93;100.00;101373.50;5027483;28;20021;-44
2021/12/23 04:20:02;;;;;;;90.07;33.45;;;;;;;-2.88;100.00;101368.94;5039735;28;20123;-43
2021/12/23 04:22:28;;;;;;;105.13;38.30;;;;;;;-2.83;100.00;101349.53;5040320;28;20119;-44
2021/12/23 04:24:53;;;;;;;95.55;35.13;;;;;;;-2.78;100.00;101346.75;5041374;28;20031;-46
2021/12/23 04:27:19;;;;;;;106.25;36.92;;;;;;;-2.76;100.00;101354.53;5040406;28;21070;-42
2021/12/23 04:29:44;;;;;;;108.35;37.97;;;;;;;-2.69;100.00;101342.91;5040286;28;20033;-44
2021/12/23 04:32:09;;;;;;;117.90;42.10;;;;;;;-2.65;100.00;101342.72;5040285;28;20012;-43
2021/12/23 04:34:34;;;;;;;111.57;41.03;;;;;;;-2.58;100.00;101352.91;5038310;28;20029;-44
2021/12/23 04:37:00;;;;;;;115.38;40.50;;;;;;;-2.54;100.00;101323.09;5040330;28;20040;-44
2021/12/23 04:39:25;;;;;;;118.35;41.92;;;;;;;-2.53;100.00;101332.63;5029005;28;20525;-42
2021/12/23 04:41:50;;;;;;;111.20;34.17;;;;;;;-2.50;100.00;101322.88;5020897;28;20087;-44
2021/12/23 04:44:15;;;;;;;111.18;38.75;;;;;;;-2.47;100.00;101308.84;5020068;28;20029;-46
2021/12/23 04:46:41;;;;;;;118.88;41.28;;;;;;;-2.46;100.00;101313.13;5019427;28;20065;-44
2021/12/23 04:49:06;;;;;;;105.32;36.90;;;;;;;-2.44;100.00;101317.41;5020970;28;20026;-43
2021/12/23 04:51:31;;;;;;;121.57;42.80;;;;;;;-2.42;100.00;101322.56;5019337;28;20029;-44
2021/12/23 04:53:57;;;;;;;114.40;40.97;;;;;;;-2.39;100.00;101314.59;5023392;28;20538;-42
2021/12/23 04:56:22;;;;;;;110.72;36.08;;;;;;;-2.38;100.00;101311.06;5024426;28;20030;-43
2021/12/23 04:58:47;;;;;;;108.88;36.88;;;;;;;-2.35;100.00;101307.47;5023506;28;20490;-43
2021/12/23 05:01:28;;;;;;;114.50;38.58;;;;;;;-2.35;100.00;101297.84;5022881;28;20037;-45
2021/12/23 05:03:54;;;;;;;114.03;38.17;;;;;;;-2.33;100.00;101303.84;5024292;28;20021;-48
2021/12/23 05:06:20;;;;;;;116.50;40.38;;;;;;;-2.31;100.00;101295.94;5026481;28;20352;-44
2021/12/23 05:08:46;;;;;;;110.65;38.13;;;;;;;-2.28;100.00;101282.72;5043853;28;20033;-44
2021/12/23 05:11:11;;;;;;;120.72;38.42;;;;;;;-2.26;100.00;101286.13;5043883;28;20028;-44
2021/12/23 05:13:37;;;;;;;118.28;39.58;;;;;;;-2.26;100.00;101286.13;5043065;28;20029;-43
2021/12/23 05:16:02;;;;;;;121.32;38.13;;;;;;;-2.24;100.00;101294.78;5044013;28;20021;-44
2021/12/23 05:18:28;;;;;;;125.75;40.10;;;;;;;-2.23;100.00;101293.84;5043122;28;20041;-44
2021/12/23 05:20:53;;;;;;;128.00;41.25;;;;;;;-2.21;100.00;101292.00;5043025;28;20025;-44
2021/12/23 05:23:19;;;;;;;121.20;39.30;;;;;;;-2.22;100.00;101295.56;5043627;28;20037;-44
2021/12/23 05:25:44;;;;;;;119.90;41.63;;;;;;;-2.19;100.00;101292.81;5043208;28;20017;-48
2021/12/23 05:28:10;;;;;;;122.70;40.45;;;;;;;-2.18;100.00;101296.25;5043497;28;20385;-46
2021/12/23 05:30:35;;;;;;;116.78;38.70;;;;;;;-2.18;100.00;101291.88;5042363;28;20349;-45
2021/12/23 05:33:01;;;;;;;118.78;42.83;;;;;;;-2.18;100.00;101291.03;5041890;28;20098;-43
2021/12/23 05:35:26;;;;;;;116.93;37.22;;;;;;;-2.18;100.00;101288.41;5041881;28;20029;-43
2021/12/23 05:37:53;;;;;;;126.00;40.17;;;;;;;-2.17;100.00;101271.78;5043211;28;20036;-47
2021/12/23 05:40:21;;;;;;;118.78;38.42;;;;;;;-2.19;100.00;101278.84;5043115;28;20305;-44
2021/12/23 05:42:46;;;;;;;117.20;36.72;;;;;;;-2.19;100.00;101282.34;5043049;28;20164;-46
2021/12/23 05:45:12;;;;;;;134.02;38.83;;;;;;;-2.21;100.00;101268.44;5043209;28;20214;-44
2021/12/23 05:47:40;;;;;;;128.05;37.53;;;;;;;-2.22;100.00;101266.78;5042363;28;20033;-46
2021/12/23 05:50:06;;;;;;;132.23;42.35;;;;;;;-2.26;100.00;101266.06;5040707;28;20025;-44
2021/12/23 05:52:32;;;;;;;123.30;39.47;;;;;;;-2.28;100.00;101267.03;5043123;28;20033;-46
2021/12/23 05:54:57;;;;;;;130.13;41.67;;;;;;;-2.28;100.00;101256.56;5041763;28;20377;-43
2021/12/23 05:57:23;;;;;;;140.75;43.08;;;;;;;-2.32;100.00;101260.25;5043122;28;20078;-44
2021/12/23 05:59:49;;;;;;;140.02;42.85;;;;;;;-2.35;100.00;101260.38;5042410;28;20457;-46
2021/12/23 06:02:14;;;;;;;133.13;43.85;;;;;;;-2.35;100.00;101276.06;5042621;28;20063;-45
2021/12/23 06:04:39;;;;;;;133.45;41.03;;;;;;;-2.36;100.00;101274.38;5040330;28;20054;-45
2021/12/23 06:07:05;;;;;;;124.35;39.03;;;;;;;-2.39;100.00;101262.28;5042959;28;20116;-45
2021/12/23 06:09:30;;;;;;;140.05;42.38;;;;;;;-2.39;100.00;101258.81;5042200;28;20446;-44
2021/12/23 06:11:55;;;;;;;143.52;45.70;;;;;;;-2.39;100.00;101264.03;5042866;28;20400;-44
2021/12/23 06:14:22;;;;;;;135.35;43.83;;;;;;;-2.36;100.00;101264.78;5042428;28;20064;-45
2021/12/23 06:16:47;;;;;;;137.73;42.25;;;;;;;-2.37;100.00;101247.38;5041778;28;20493;-43
2021/12/23 06:19:13;;;;;;;138.07;42.83;;;;;;;-2.35;100.00;101245.53;5041851;28;20043;-44
2021/12/23 06:21:38;;;;;;;131.82;40.63;;;;;;;-2.31;100.00;101241.88;5041866;28;20060;-44
2021/12/23 06:24:04;;;;;;;141.88;43.00;;;;;;;-2.30;100.00;101229.63;5042458;28;20509;-44
2021/12/23 06:26:31;;;;;;;146.35;43.60;;;;;;;-2.32;100.00;101221.00;5040686;28;20036;-43
2021/12/23 06:28:57;;;;;;;147.50;42.47;;;;;;;-2.31;100.00;101223.56;5036452;28;20029;-46
2021/12/23 06:31:22;;;;;;;143.90;43.70;;;;;;;-2.33;100.00;101222.75;5041825;28;20151;-43
2021/12/23 06:33:47;;;;;;;139.90;39.40;;;;;;;-2.34;100.00;101220.22;5041877;28;20503;-45
2021/12/23 06:36:16;;;;;;;140.93;41.88;;;;;;;-2.36;100.00;101225.53;5040086;28;20045;-43
2021/12/23 06:38:42;;;;;;;153.52;42.58;;;;;;;-2.37;100.00;101217.75;5040040;28;20375;-44
2021/12/23 06:41:08;;;;;;;145.68;43.45;;;;;;;-2.36;100.00;101209.84;5041491;28;20055;-44
2021/12/23 06:43:34;;;;;;;143.73;44.28;;;;;;;-2.33;100.00;101208.84;5040691;28;20025;-46
2021/12/23 06:46:00;;;;;;;151.10;44.38;;;;;;;-2.32;100.00;101198.31;5041666;28;20078;-46
2021/12/23 06:48:26;;;;;;;150.57;45.03;;;;;;;-2.28;100.00;101189.38;5041134;28;20075;-45
2021/12/23 06:50:56;;;;;;;153.85;47.20;;;;;;;-2.24;100.00;101192.75;5040241;28;20060;-43
2021/12/23 06:53:22;;;;;;;148.07;45.95;;;;;;;-2.20;100.00;101193.44;5040798;28;20025;-47
2021/12/23 06:55:49;;;;;;;156.90;46.53;;;;;;;-2.17;100.00;101204.63;5041405;28;20446;-46
2021/12/23 06:58:15;;;;;;;147.30;44.95;;;;;;;-2.16;100.00;101201.06;5041966;28;20442;-45
2021/12/23 07:00:40;;;;;;;150.98;43.75;;;;;;;-2.10;100.00;101211.25;5041092;28;20033;-43
2021/12/23 07:03:05;;;;;;;163.88;45.30;;;;;;;-2.07;100.00;101211.13;5041222;28;20473;-44
2021/12/23 07:05:31;;;;;;;160.90;47.30;;;;;;;-2.05;100.00;101224.13;5039825;28;20033;-46
2021/12/23 07:08:03;;;;;;;151.55;44.80;;;;;;;-2.02;100.00;101226.63;5041463;28;20033;-44
2021/12/23 07:10:30;;;;;;;151.40;45.35;;;;;;;-2.00;100.00;101219.53;5041263;28;20396;-47
2021/12/23 07:12:57;;;;;;;156.25;46.67;;;;;;;-1.98;100.00;101211.63;5040969;28;20036;-46
2021/12/23 07:15:26;;;;;;;158.88;47.70;;;;;;;-1.98;100.00;101212.47;5040656;28;20128;-43
2021/12/23 07:17:55;;;;;;;159.38;48.13;;;;;;;-1.95;100.00;101211.47;5033765;28;20088;-43
2021/12/23 07:20:23;;;;;;;155.60;46.38;;;;;;;-1.92;100.00;101203.47;5039582;28;20112;-43
2021/12/23 07:22:48;;;;;;;162.85;46.05;;;;;;;-1.92;100.00;101204.34;5027603;28;20029;-45
2021/12/23 07:25:14;;;;;;;163.48;48.97;;;;;;;-1.90;100.00;101218.19;5019382;28;20383;-44
2021/12/23 07:27:40;;;;;;;148.65;45.45;;;;;;;-1.87;100.00;101227.66;5019727;28;20021;-46
2021/12/23 07:30:07;;;;;;;161.05;45.17;;;;;;;-1.86;100.00;101231.97;5038429;28;20111;-43
2021/12/23 07:32:32;;;;;;;159.65;46.08;;;;;;;-1.85;100.00;101220.59;5038818;28;20052;-43
2021/12/23 07:34:57;;;;;;;159.25;45.80;;;;;;;-1.83;100.00;101213.53;5038554;28;20033;-44
2021/12/23 07:37:23;;;;;;;149.18;46.53;;;;;;;-1.81;100.00;101202.97;5039747;28;20069;-45
2021/12/23 07:39:49;;;;;;;166.00;46.67;;;;;;;-1.81;100.00;101211.66;5039801;28;20029;-48
2021/12/23 07:42:15;;;;;;;154.27;45.88;;;;;;;-1.81;100.00;101216.06;5040654;28;20044;-46
2021/12/23 07:44:42;;;;;;;157.00;41.63;;;;;;;-1.77;100.00;101231.53;5039684;28;20111;-45
2021/12/23 07:47:08;;;;;;;155.02;44.95;;;;;;;-1.77;100.00;101223.69;5039590;28;20422;-45
2021/12/23 07:49:33;;;;;;;155.30;45.47;;;;;;;-1.74;100.00;101225.31;5038019;28;20103;-43
2021/12/23 07:51:58;;;;;;;151.38;44.20;;;;;;;-1.74;100.00;101207.84;5039919;28;20021;-45
2021/12/23 07:54:24;;;;;;;150.77;44.60;;;;;;;-1.72;100.00;101205.16;5039899;28;20021;-44
2021/12/23 07:56:49;;;;;;;165.60;46.42;;;;;;;-1.71;100.00;101202.47;5038746;28;20029;-44
2021/12/23 07:59:14;;;;;;;159.45;43.40;;;;;;;-1.70;100.00;101209.41;5032126;28;20619;-46
2021/12/23 08:01:40;;;;;;;157.35;43.05;;;;;;;-1.66;100.00;101206.63;5019264;28;20029;-47
2021/12/23 08:04:05;;;;;;;156.45;42.60;;;;;;;-1.64;100.00;101202.19;5019541;28;20086;-44
2021/12/23 08:06:31;;;;;;;158.38;43.65;;;;;;;-1.62;100.00;101195.94;5019616;28;20030;-44
2021/12/23 08:08:56;;;;;;;158.93;42.47;;;;;;;-1.61;100.00;101200.25;5035184;28;20032;-43
2021/12/23 08:11:21;;;;;;;163.90;44.05;;;;;;;-1.59;100.00;101202.81;5020291;28;20112;-45
2021/12/23 08:13:47;;;;;;;172.57;45.70;;;;;;;-1.58;100.00;101194.88;5019254;28;20051;-45
2021/12/23 08:16:12;;;;;;;151.90;42.70;;;;;;;-1.57;100.00;101206.19;5029883;28;20046;-44
2021/12/23 08:18:37;;;;;;;154.32;42.03;;;;;;;-1.55;100.00;101215.66;5037956;28;20032;-47
2021/12/23 08:21:03;;;;;;;160.38;42.65;;;;;;;-1.53;100.00;101210.34;5038214;28;20476;-44
2021/12/23 08:23:28;;;;;;;152.40;42.35;;;;;;;-1.49;100.00;101204.06;5039189;28;20029;-45
2021/12/23 08:25:54;;;;;;;155.70;42.38;;;;;;;-1.47;100.00;101196.13;5039425;28;20021;-42
2021/12/23 08:28:20;;;;;;;159.25;42.42;;;;;;;-1.44;100.00;101188.09;5040648;28;20053;-47
2021/12/23 08:30:46;;;;;;;152.80;39.80;;;;;;;-1.42;100.00;101181.88;5043015;28;20052;-44
2021/12/23 08:33:11;;;;;;;159.70;43.10;;;;;;;-1.38;100.00;101177.31;5043003;28;20021;-42
2021/12/23 08:35:37;;;;;;;168.00;44.40;;;;;;;-1.37;100.00;101182.47;5041638;28;20025;-44
2021/12/23 08:38:04;;;;;;;155.18;42.75;;;;;;;-1.34;100.00;101179.72;5043153;28;20029;-43
2021/12/23 08:40:29;;;;;;;164.88;41.92;;;;;;;-1.34;100.00;101168.38;5043208;28;20108;-42
2021/12/23 08:42:59;;;;;;;148.20;41.92;;;;;;;-1.29;100.00;101168.16;5043909;28;20021;-45
2021/12/23 08:45:28;;;;;;;153.13;40.20;;;;;;;-1.25;100.00;101159.22;5040407;28;20036;-43
2021/12/23 08:47:57;;;;;;;149.68;42.25;;;;;;;-1.20;100.00;101151.97;5041893;28;20031;-44
2021/12/23 08:50:24;;;;;;;158.77;40.63;;;;;;;-1.15;100.00;101149.97;5042226;28;20434;-44
2021/12/23 08:52:50;;;;;;;157.65;42.53;;;;;;;-1.11;100.00;101141.00;5042458;28;20108;-44
2021/12/23 08:55:16;;;;;;;144.32;41.40;;;;;;;-1.08;100.00;101146.09;5043140;28;20609;-43
2021/12/23 08:57:42;;;;;;;160.52;40.70;;;;;;;-1.03;100.00;101138.00;5043196;28;20047;-46
2021/12/23 09:00:11;;;;;;;153.77;43.65;;;;;;;-1.03;100.00;101138.84;5043568;28;20838;-47
2021/12/23 09:02:37;;;;;;;148.25;40.72;;;;;;;-1.01;100.00;101142.22;5042306;28;20052;-45
2021/12/23 09:05:03;;;;;;;160.25;43.08;;;;;;;-0.94;100.00;101142.75;5041867;28;20142;-46
2021/12/23 09:07:28;;;;;;;165.98;45.53;;;;;;;-0.90;100.00;101146.94;5043407;28;20033;-44
2021/12/23 09:09:53;;;;;;;155.82;42.88;;;;;;;-0.82;100.00;101146.53;5043729;28;20025;-42
2021/12/23 09:12:20;;;;;;;157.13;43.63;;;;;;;-0.78;100.00;101138.41;5041804;28;20060;-43
2021/12/23 09:14:46;;;;;;;162.30;45.85;;;;;;;-0.77;100.00;101134.84;5042749;28;20522;-45
2021/12/23 09:17:11;;;;;;;148.90;41.17;;;;;;;-0.77;100.00;101140.09;5042689;28;20021;-43
2021/12/23 09:19:37;;;;;;;155.20;42.40;;;;;;;-0.77;100.00;101131.41;5040685;28;20052;-44
2021/12/23 09:22:02;;;;;;;152.18;42.25;;;;;;;-0.79;100.00;101135.88;5043174;28;20439;-44
2021/12/23 09:24:28;;;;;;;152.63;42.60;;;;;;;-0.74;100.00;101136.47;5042728;28;20036;-46
2021/12/23 09:27:00;;;;;;;150.73;41.47;;;;;;;-0.71;100.00;101132.84;5043335;28;20017;-43
2021/12/23 09:34:46;;;;;;;162.43;45.28;;;;;;;-0.65;100.00;101132.53;5041174;28;20110;-46
2021/12/23 09:37:11;;;;;;;159.27;43.13;;;;;;;-0.62;100.00;101133.19;5042364;28;20045;-44
2021/12/23 09:39:36;;;;;;;165.70;44.13;;;;;;;-0.59;100.00;101121.72;5042067;28;20400;-44
2021/12/23 09:42:03;;;;;;;171.10;45.72;;;;;;;-0.54;100.00;101118.81;5043097;28;20067;-44
2021/12/23 09:44:30;;;;;;;159.93;47.05;;;;;;;-0.52;100.00;101111.72;5042708;28;20029;-47
2021/12/23 09:47:01;;;;;;;162.85;42.33;;;;;;;-0.47;100.00;101105.28;5043196;28;20051;-43
2021/12/23 09:49:27;;;;;;;167.63;44.13;;;;;;;-0.43;100.00;101101.56;5041243;28;20507;-45
2021/12/23 09:51:55;;;;;;;175.73;43.90;;;;;;;-0.39;100.00;101099.63;5043388;28;20077;-43
2021/12/23 09:54:21;;;;;;;170.52;43.60;;;;;;;-0.36;100.00;101102.06;5042844;28;20072;-44
2021/12/23 09:56:46;;;;;;;169.40;43.47;;;;;;;-0.34;100.00;101095.00;5041889;28;20482;-43
2021/12/23 09:59:14;;;;;;;163.55;44.88;;;;;;;-0.34;100.00;101095.00;5041629;28;20017;-43
2021/12/23 10:01:39;;;;;;;167.40;45.40;;;;;;;-0.33;100.00;101091.41;5041683;28;20033;-44
2021/12/23 10:04:04;;;;;;;160.30;43.40;;;;;;;-0.33;100.00;101090.56;5041864;28;20114;-44
2021/12/23 10:06:30;;;;;;;180.20;44.78;;;;;;;-0.28;100.00;101083.28;5041416;28;20035;-44
2021/12/23 10:08:56;;;;;;;161.40;44.35;;;;;;;-0.28;100.00;101076.25;5042359;28;20221;-45
2021/12/23 10:31:04;;;;;;;170.60;46.42;;;;;;;0.10;100.00;101038.25;5042533;28;20036;-46
2021/12/23 10:33:49;;;;;;;174.00;46.63;;;;;;;0.11;100.00;101026.84;5040440;28;20033;-45
2021/12/23 10:39:07;;;;;;;160.38;43.38;;;;;;;0.19;100.00;101011.47;5041932;28;20504;-45
2021/12/23 10:41:32;;;;;;;161.27;45.72;;;;;;;0.24;100.00;101019.06;5041024;28;20028;-44
2021/12/23 10:44:01;;;;;;;162.23;45.05;;;;;;;0.28;100.00;101012.72;5041258;28;20338;-43
2021/12/23 10:46:27;;;;;;;166.63;45.42;;;;;;;0.31;100.00;101005.50;5040504;28;20052;-45
2021/12/23 10:49:13;;;;;;;177.15;45.75;;;;;;;0.38;100.00;101007.75;5041262;28;20024;-47
2021/12/23 10:52:04;;;;;;;163.18;43.88;;;;;;;0.41;100.00;100997.91;5039845;28;20028;-45
2021/12/23 11:00:20;;;;;;;181.23;45.42;;;;;;;0.52;100.00;100986.75;5041087;28;20110;-44
2021/12/23 11:03:01;;;;;;;158.32;40.40;;;;;;;0.62;100.00;100981.78;5040693;28;20295;-44
2021/12/23 11:05:32;;;;;;;163.88;45.13;;;;;;;0.64;100.00;100985.16;5039706;28;20056;-44
2021/12/23 11:08:14;;;;;;;156.95;41.30;;;;;;;0.68;100.00;100973.50;5041406;28;20041;-48
2021/12/23 11:11:01;;;;;;;;;;;;;;;0.73;100.00;100974.94;5041733;28;20021;-46
2021/12/23 11:27:31;;;;;;;151.15;40.40;;;;;;;0.89;100.00;100964.31;4997724;28;20045;-47
2021/12/23 11:31:36;;;;;;;153.30;42.75;;;;;;;1.13;100.00;100950.56;5020398;28;20141;-47
2021/12/23 11:41:32;;;;;;;147.55;37.97;;;;;;;1.61;100.00;100929.91;5020562;28;20768;-44
2021/12/23 11:44:00;;;;;;;143.40;36.58;;;;;;;1.75;100.00;100931.63;5020184;28;20295;-44
2021/12/23 11:46:36;;;;;;;139.80;37.17;;;;;;;1.83;100.00;100916.16;5020164;28;20060;-44
2021/12/23 11:49:07;;;;;;;155.38;38.75;;;;;;;1.91;100.00;100914.81;5019812;28;20025;-47
2021/12/23 11:51:43;;;;;;;139.57;39.03;;;;;;;1.95;100.00;100905.72;5019869;28;20935;-44
2021/12/23 11:54:12;;;;;;;144.82;38.95;;;;;;;2.02;100.00;100897.31;5020873;28;20458;-45
2021/12/23 11:56:53;;;;;;;130.00;36.25;;;;;;;2.12;100.00;100894.91;5022577;28;20115;-45
2021/12/23 11:59:19;;;;;;;141.65;36.90;;;;;;;2.23;100.00;100894.16;5038261;28;20116;-47